createdAt,value
2023-05-19T00:08:24.387Z,14.9
2023-05-19T00:21:24.392Z,14.6
2023-05-19T00:34:24.514Z,14.6
2023-05-19T00:47:24.632Z,15.0
2023-05-19T01:00:24.529Z,15.1
2023-05-19T01:13:24.550Z,14.8
2023-05-19T01:26:24.548Z,15.0
2023-05-19T01:39:24.589Z,15.0
2023-05-19T01:52:24.615Z,15.1
2023-05-19T02:05:24.627Z,15.1
2023-05-19T02:18:24.658Z,14.7
2023-05-19T02:31:24.693Z,14.2
2023-05-19T02:44:24.675Z,14.0
2023-05-19T02:57:24.675Z,14.1
2023-05-19T03:10:24.706Z,14.3
2023-05-19T03:23:24.801Z,14.4
2023-05-19T03:36:24.857Z,14.3
2023-05-19T03:49:24.894Z,14.4
2023-05-19T04:02:25.002Z,14.6
2023-05-19T04:15:24.941Z,14.8
2023-05-19T04:28:24.934Z,14.8
2023-05-19T04:41:24.978Z,14.9
2023-05-19T04:54:24.967Z,15.0
2023-05-19T05:07:25.032Z,15.1
2023-05-19T05:20:25.007Z,15.0
2023-05-19T05:33:25.187Z,15.1
2023-05-19T05:46:25.125Z,15.2
2023-05-19T05:59:25.040Z,15.5
2023-05-19T06:12:24.989Z,15.8
2023-05-19T06:25:25.034Z,16.2
2023-05-19T06:38:25.109Z,17.0
2023-05-19T06:51:25.182Z,17.9
2023-05-19T07:04:25.176Z,18.7
2023-05-19T07:17:25.201Z,19.2
2023-05-19T07:30:25.164Z,18.9
2023-05-19T07:43:25.189Z,18.4
2023-05-19T07:56:25.239Z,18.0
2023-05-19T08:09:25.262Z,17.7
2023-05-19T08:22:25.315Z,17.6
2023-05-19T08:35:25.289Z,17.9
2023-05-19T08:48:25.386Z,18.4
2023-05-19T09:01:25.384Z,18.5
2023-05-19T09:14:25.412Z,18.8
2023-05-19T09:27:25.407Z,18.9
2023-05-19T09:40:25.404Z,18.5
2023-05-19T09:53:25.373Z,18.3
2023-05-19T10:06:25.504Z,19.1
2023-05-19T10:19:25.680Z,20.1
2023-05-19T10:32:25.679Z,20.3
2023-05-19T10:45:25.574Z,20.6
2023-05-19T10:58:25.551Z,20.6
2023-05-19T11:11:25.596Z,20.7
2023-05-19T11:24:25.593Z,21.2
2023-05-19T11:37:25.594Z,22.3
2023-05-19T11:50:25.635Z,21.7
2023-05-19T12:03:25.834Z,20.4
2023-05-19T12:16:25.659Z,20.9
2023-05-19T12:29:25.657Z,21.1
2023-05-19T12:42:25.660Z,20.2
2023-05-19T12:55:25.697Z,20.1
2023-05-19T13:08:25.702Z,20.6
2023-05-19T13:21:25.794Z,20.8
2023-05-19T13:34:25.755Z,20.8
2023-05-19T13:47:25.865Z,20.4
2023-05-19T14:00:25.800Z,20.4
2023-05-19T14:13:32.884Z,20.0
2023-05-19T14:26:27.348Z,20.7
2023-05-19T14:39:25.819Z,21.0
2023-05-19T14:52:25.844Z,20.2
2023-05-19T15:05:25.848Z,20.3
2023-05-19T15:18:25.828Z,19.6
2023-05-19T15:31:25.954Z,19.1
2023-05-19T15:44:27.686Z,18.5
2023-05-19T15:57:25.955Z,18.3
2023-05-19T16:10:25.939Z,18.2
2023-05-19T16:23:25.955Z,17.7
2023-05-19T16:36:26.002Z,17.7
2023-05-19T16:49:26.078Z,18.4
2023-05-19T17:02:26.134Z,18.1
2023-05-19T17:15:26.031Z,17.6
2023-05-19T17:28:26.144Z,17.4
2023-05-19T17:41:26.163Z,16.5
2023-05-19T17:54:26.231Z,16.0
2023-05-19T18:07:26.236Z,15.6
2023-05-19T18:20:26.646Z,15.2
2023-05-19T18:33:27.924Z,14.7
2023-05-19T18:46:26.609Z,14.7
2023-05-19T18:59:26.380Z,14.6
2023-05-19T19:12:26.473Z,15.0
2023-05-19T19:25:26.510Z,15.1
2023-05-19T19:38:26.906Z,14.9
2023-05-19T19:51:26.606Z,15.0
2023-05-19T20:04:26.755Z,15.2
2023-05-19T20:17:26.772Z,15.4
2023-05-19T20:30:26.824Z,16.0
2023-05-19T20:43:26.830Z,16.2
2023-05-19T20:56:26.935Z,16.1
2023-05-19T21:09:26.932Z,16.1
2023-05-19T21:22:26.994Z,16.0
2023-05-19T21:35:27.034Z,16.0
2023-05-19T21:48:27.014Z,16.2
2023-05-19T22:01:27.050Z,15.9
2023-05-19T22:14:27.083Z,15.5
2023-05-19T22:27:27.143Z,15.5
2023-05-19T22:40:27.188Z,15.7
2023-05-19T22:53:27.123Z,15.8
2023-05-19T23:06:27.147Z,15.5
2023-05-19T23:19:27.249Z,14.8
2023-05-19T23:32:27.266Z,14.7
2023-05-19T23:45:27.297Z,14.8
2023-05-19T23:58:27.288Z,15.3
